Time;durP1;ratioP1;P1;durP2;ratioP2;P2;SDS_P1;SDS_P2;PMS_P1;PMS_P2;Temp;Humidity;BMP_temperature;BMP_pressure;BME280_temperature;BME280_humidity;BME280_pressure;Samples;Min_cycle;Max_cycle;Signal;HPM_P1;HPM_P2
2023/09/15 05:28:04;;;;;;;5.80;5.28;;;;;;;;;;6346120;22;20320;-92
2023/09/15 05:30:32;;;;;;;8.15;6.50;;;;;;;;;;6361918;22;20011;-91
2023/09/15 05:32:57;;;;;;;7.90;5.50;;;;;;;;;;6315280;22;20014;-92
2023/09/15 05:35:23;;;;;;;6.43;5.82;;;;;;;;;;6313270;22;20003;-92
2023/09/15 05:37:49;;;;;;;6.80;6.03;;;;;;;;;;6313606;22;20414;-92
2023/09/15 05:40:14;;;;;;;8.23;5.88;;;;;;;;;;6314758;22;20014;-92
2023/09/15 05:42:40;;;;;;;7.15;6.40;;;;;;;;;;6313292;22;20007;-92
2023/09/15 05:45:06;;;;;;;6.65;5.95;;;;;;;;;;6313274;22;20059;-92
2023/09/15 05:47:33;;;;;;;6.53;5.93;;;;;;;;;;6312991;22;19998;-92
2023/09/15 05:50:04;;;;;;;6.57;5.78;;;;;;;;;;6313188;22;20026;-92
2023/09/15 05:52:30;;;;;;;5.97;5.40;;;;;;;;;;6313267;22;20015;-92
2023/09/15 05:54:55;;;;;;;6.43;5.88;;;;;;;;;;6314998;22;19999;-91
2023/09/15 05:57:21;;;;;;;7.30;6.22;;;;;;;;;;6313230;22;20009;-92
2023/09/15 05:59:46;;;;;;;7.35;6.65;;;;;;;;;;6312964;22;20022;-92
2023/09/15 06:02:13;;;;;;;7.10;6.40;;;;;;;;;;6315013;22;20417;-92
2023/09/15 06:04:42;;;;;;;6.88;6.18;;;;;;;;;;6313049;22;19998;-92
2023/09/15 06:07:07;;;;;;;6.07;5.47;;;;;;;;;;6313607;22;20003;-90
2023/09/15 06:09:33;;;;;;;7.65;5.95;;;;;;;;;;6313235;22;20002;-92
2023/09/15 06:11:58;;;;;;;6.65;6.07;;;;;;;;;;6340606;22;20022;-92
2023/09/15 06:14:23;;;;;;;6.47;5.97;;;;;;;;;;6312930;22;19998;-87
2023/09/15 06:16:49;;;;;;;6.25;5.50;;;;;;;;;;6340073;22;20010;-89
2023/09/15 06:19:14;;;;;;;6.50;6.00;;;;;;;;;;6339994;22;20009;-88
2023/09/15 06:21:40;;;;;;;6.82;6.15;;;;;;;;;;6340719;22;20056;-90
2023/09/15 06:24:06;;;;;;;6.82;6.07;;;;;;;;;;6341167;22;20041;-92
2023/09/15 06:26:33;;;;;;;6.70;6.05;;;;;;;;;;6312944;22;20033;-93
2023/09/15 06:28:58;;;;;;;6.65;6.05;;;;;;;;;;6314214;22;20057;-90
2023/09/15 06:31:23;;;;;;;6.80;6.20;;;;;;;;;;6287830;22;20445;-90
2023/09/15 06:33:49;;;;;;;9.18;6.03;;;;;;;;;;6340768;22;19998;-94
2023/09/15 06:36:15;;;;;;;7.30;6.38;;;;;;;;;;6313978;22;19999;-92
2023/09/15 06:38:41;;;;;;;10.38;6.40;;;;;;;;;;6313909;22;19999;-92
2023/09/15 06:41:06;;;;;;;6.80;6.20;;;;;;;;;;6313238;22;20035;-92
2023/09/15 06:43:31;;;;;;;6.82;6.22;;;;;;;;;;6313348;22;20003;-90
2023/09/15 06:45:57;;;;;;;7.40;6.13;;;;;;;;;;6312125;22;20013;-90
2023/09/15 06:48:23;;;;;;;7.30;6.65;;;;;;;;;;6340820;22;20003;-94
2023/09/15 06:50:48;;;;;;;10.75;6.80;;;;;;;;;;6340536;22;20030;-94
2023/09/15 06:53:13;;;;;;;7.03;5.93;;;;;;;;;;6340391;22;20026;-94
2023/09/15 06:55:39;;;;;;;7.97;5.72;;;;;;;;;;6340347;22;20006;-92
2023/09/15 06:58:04;;;;;;;8.80;6.57;;;;;;;;;;6340427;22;20099;-90
2023/09/15 07:00:42;;;;;;;18.17;7.40;;;;;;;;;;5112591;27;20389;-93
2023/09/15 07:03:08;;;;;;;15.18;6.80;;;;;;;;;;5110523;28;20554;-93
2023/09/15 07:05:33;;;;;;;8.63;6.25;;;;;;;;;;5110959;28;20028;-94
2023/09/15 07:07:58;;;;;;;9.20;5.65;;;;;;;;;;5111051;28;20485;-90
2023/09/15 07:10:25;;;;;;;13.57;6.60;;;;;;;;;;5111762;28;20032;-93
2023/09/15 07:12:50;;;;;;;9.65;5.97;;;;;;;;;;5111801;28;20023;-92
2023/09/15 07:15:15;;;;;;;11.70;6.57;;;;;;;;;;5110664;28;20028;-94
2023/09/15 07:17:42;;;;;;;11.30;5.70;;;;;;;;;;5112051;28;20020;-94
2023/09/15 07:20:08;;;;;;;6.03;5.40;;;;;;;;;;5111998;28;20028;-93
2023/09/15 07:22:33;;;;;;;8.63;5.30;;;;;;;;;;5111658;28;20023;-92
2023/09/15 07:24:58;;;;;;;6.40;5.50;;;;;;;;;;5111608;28;20035;-93
2023/09/15 07:27:24;;;;;;;7.53;5.40;;;;;;;;;;5111414;28;20030;-93
2023/09/15 07:29:50;;;;;;;9.90;5.13;;;;;;;;;;5110121;28;20388;-91
2023/09/15 07:32:15;;;;;;;20.55;6.68;;;;;;;;;;5111488;28;20015;-93
2023/09/15 07:34:41;;;;;;;51.97;9.20;;;;;;;;;;5110272;28;20023;-92
2023/09/15 07:37:06;;;;;;;46.35;8.20;;;;;;;;;;5110523;28;20458;-91
2023/09/15 07:39:32;;;;;;;35.20;7.28;;;;;;;;;;5109873;28;20032;-93
2023/09/15 07:41:57;;;;;;;19.13;6.00;;;;;;;;;;5111266;28;20045;-93
2023/09/15 07:44:23;;;;;;;16.70;6.18;;;;;;;;;;5109944;28;20028;-93
2023/09/15 07:46:48;;;;;;;15.60;6.55;;;;;;;;;;5111281;28;20050;-91
2023/09/15 07:49:14;;;;;;;7.30;5.53;;;;;;;;;;5109884;28;20118;-91
2023/09/15 07:51:39;;;;;;;16.40;6.43;;;;;;;;;;5109881;28;20028;-93
2023/09/15 07:54:05;;;;;;;17.33;5.88;;;;;;;;;;5109937;28;20458;-92
2023/09/15 07:56:30;;;;;;;21.45;6.22;;;;;;;;;;5109645;28;20466;-94
2023/09/15 07:58:56;;;;;;;9.23;5.40;;;;;;;;;;5110834;28;20108;-94
2023/09/15 08:01:21;;;;;;;8.13;5.05;;;;;;;;;;5110755;28;20587;-93
2023/09/15 08:03:47;;;;;;;5.63;5.13;;;;;;;;;;5110887;28;20027;-93
2023/09/15 08:06:15;;;;;;;5.80;5.00;;;;;;;;;;5111022;28;20034;-94
2023/09/15 08:08:42;;;;;;;5.80;4.53;;;;;;;;;;5111064;28;20081;-93
2023/09/15 08:11:08;;;;;;;27.77;6.68;;;;;;;;;;5102150;28;20050;-93
2023/09/15 08:13:33;;;;;;;5.00;4.57;;;;;;;;;;5097184;28;20028;-92
2023/09/15 08:15:58;;;;;;;15.48;5.85;;;;;;;;;;5097141;28;20036;-93
2023/09/15 08:18:24;;;;;;;7.30;5.07;;;;;;;;;;5097427;28;20027;-93
2023/09/15 08:20:50;;;;;;;18.63;6.10;;;;;;;;;;5096039;28;20038;-93
2023/09/15 08:23:15;;;;;;;31.33;7.68;;;;;;;;;;5095873;28;20028;-94
2023/09/15 08:25:42;;;;;;;5.93;4.75;;;;;;;;;;5097017;28;20024;-92
2023/09/15 08:28:08;;;;;;;10.13;5.07;;;;;;;;;;5096909;28;20103;-94
2023/09/15 08:30:35;;;;;;;28.00;7.57;;;;;;;;;;5095605;28;20077;-94
2023/09/15 08:33:02;;;;;;;6.35;4.57;;;;;;;;;;5096793;28;20024;-94
2023/09/15 08:35:28;;;;;;;8.38;5.45;;;;;;;;;;5097016;28;20035;-94
2023/09/15 08:37:54;;;;;;;6.38;4.57;;;;;;;;;;5096633;28;20107;-94
2023/09/15 08:40:19;;;;;;;9.00;5.35;;;;;;;;;;5095380;28;20530;-93
2023/09/15 08:42:45;;;;;;;5.75;5.25;;;;;;;;;;5096523;28;20462;-94
2023/09/15 08:45:11;;;;;;;5.13;4.60;;;;;;;;;;5095466;28;20078;-93
2023/09/15 08:47:40;;;;;;;5.53;4.90;;;;;;;;;;5096380;28;20047;-93
2023/09/15 08:50:07;;;;;;;5.28;4.78;;;;;;;;;;5096581;28;20020;-94
2023/09/15 08:52:34;;;;;;;7.47;4.88;;;;;;;;;;5096311;28;20032;-94
2023/09/15 08:55:01;;;;;;;6.90;5.22;;;;;;;;;;5095161;28;20024;-94
2023/09/15 08:57:29;;;;;;;5.90;4.47;;;;;;;;;;5095181;28;20073;-93
2023/09/15 08:59:54;;;;;;;6.45;5.07;;;;;;;;;;5095971;28;20056;-94
2023/09/15 09:02:22;;;;;;;5.53;4.57;;;;;;;;;;5096316;28;20110;-94
2023/09/15 09:04:48;;;;;;;11.02;5.50;;;;;;;;;;5096247;28;20020;-93
2023/09/15 09:07:15;;;;;;;4.72;4.32;;;;;;;;;;5096370;28;20031;-93
2023/09/15 09:09:41;;;;;;;4.85;4.20;;;;;;;;;;5097165;28;20028;-94
2023/09/15 09:12:08;;;;;;;5.18;4.70;;;;;;;;;;5096848;28;20024;-94
2023/09/15 09:14:34;;;;;;;5.20;4.72;;;;;;;;;;5096103;28;20034;-94
2023/09/15 09:17:01;;;;;;;6.35;4.85;;;;;;;;;;5106383;28;20051;-93
2023/09/15 09:19:46;;;;;;;6.20;4.25;;;;;;;;;;5105659;28;20051;-96
2023/09/15 09:22:18;;;;;;;5.15;4.75;;;;;;;;;;5108563;28;20020;-96
2023/09/15 09:24:45;;;;;;;5.30;3.92;;;;;;;;;;5106287;28;20051;-96
2023/09/15 09:27:12;;;;;;;6.18;4.88;;;;;;;;;;5097878;28;20501;-95
2023/09/15 09:29:38;;;;;;;8.45;5.15;;;;;;;;;;5094643;28;20024;-95
2023/09/15 09:32:04;;;;;;;5.00;4.60;;;;;;;;;;5094580;28;20108;-91
2023/09/15 09:34:30;;;;;;;5.03;4.40;;;;;;;;;;5093500;28;20024;-90
2023/09/15 09:36:56;;;;;;;5.10;4.38;;;;;;;;;;5093564;28;20031;-91
2023/09/15 09:39:21;;;;;;;5.32;4.82;;;;;;;;;;5094808;28;20028;-91
2023/09/15 09:41:47;;;;;;;5.63;4.60;;;;;;;;;;5093726;28;20030;-90
2023/09/15 09:44:12;;;;;;;5.43;4.93;;;;;;;;;;5094921;28;20028;-91
2023/09/15 09:46:41;;;;;;;5.60;5.10;;;;;;;;;;5093818;28;20061;-92
2023/09/15 09:49:08;;;;;;;6.47;4.85;;;;;;;;;;5094192;28;20028;-93
2023/09/15 09:51:35;;;;;;;5.75;5.00;;;;;;;;;;5093905;28;20086;-93
2023/09/15 09:54:01;;;;;;;5.25;4.68;;;;;;;;;;5093874;28;20195;-92
2023/09/15 09:56:26;;;;;;;5.68;5.00;;;;;;;;;;5094113;28;20113;-92
2023/09/15 09:58:53;;;;;;;9.05;5.18;;;;;;;;;;5095425;28;20056;-93
2023/09/15 10:01:20;;;;;;;5.53;5.03;;;;;;;;;;5094541;28;20036;-93
2023/09/15 10:03:45;;;;;;;6.72;5.82;;;;;;;;;;5094865;28;20531;-93
2023/09/15 10:06:11;;;;;;;5.80;5.30;;;;;;;;;;5094768;28;20020;-94
2023/09/15 10:08:41;;;;;;;6.50;5.60;;;;;;;;;;5095275;28;20066;-94
2023/09/15 10:11:10;;;;;;;7.25;6.05;;;;;;;;;;5095406;28;20073;-96
2023/09/15 10:13:36;;;;;;;8.57;7.78;;;;;;;;;;5096104;28;20024;-96
2023/09/15 10:16:02;;;;;;;9.48;7.70;;;;;;;;;;5095340;28;20101;-96
2023/09/15 10:18:31;;;;;;;7.28;6.57;;;;;;;;;;5094482;28;20027;-95
2023/09/15 10:20:57;;;;;;;10.32;8.45;;;;;;;;;;5094077;28;20028;-94
2023/09/15 10:23:24;;;;;;;12.32;9.13;;;;;;;;;;5093830;28;20028;-94
2023/09/15 10:25:53;;;;;;;11.48;9.73;;;;;;;;;;5093748;28;20078;-94
2023/09/15 10:28:22;;;;;;;10.50;9.43;;;;;;;;;;5093374;28;20063;-92
2023/09/15 10:30:52;;;;;;;13.13;9.68;;;;;;;;;;5093506;28;20086;-93
2023/09/15 10:33:23;;;;;;;11.57;10.40;;;;;;;;;;5093483;28;20038;-94
2023/09/15 10:35:48;;;;;;;10.68;9.55;;;;;;;;;;5093521;28;20028;-93
2023/09/15 10:38:26;;;;;;;13.48;9.40;;;;;;;;;;5093325;28;20548;-93
2023/09/15 10:40:54;;;;;;;13.90;11.02;;;;;;;;;;5093884;28;20107;-92
2023/09/15 10:43:20;;;;;;;12.65;11.25;;;;;;;;;;5093036;28;20027;-94
2023/09/15 10:46:02;;;;;;;13.00;10.80;;;;;;;;;;5092953;28;20038;-89
2023/09/15 10:48:46;;;;;;;12.27;11.07;;;;;;;;;;5095106;28;20136;-91
2023/09/15 10:51:15;;;;;;;11.35;10.25;;;;;;;;;;5096144;28;20591;-90
2023/09/15 10:53:48;;;;;;;11.43;10.18;;;;;;;;;;5093157;28;20539;-90
2023/09/15 10:56:15;;;;;;;12.30;10.13;;;;;;;;;;5094262;28;20052;-89
2023/09/15 10:58:41;;;;;;;11.05;9.63;;;;;;;;;;5093608;28;20036;-88
2023/09/15 11:01:09;;;;;;;13.68;9.93;;;;;;;;;;5093760;28;20042;-88
2023/09/15 11:03:36;;;;;;;11.75;9.35;;;;;;;;;;5093771;28;20028;-91
2023/09/15 11:06:08;;;;;;;11.35;10.23;;;;;;;;;;5092226;28;20039;-89
2023/09/15 11:08:34;;;;;;;9.38;8.45;;;;;;;;;;5093558;28;20032;-90
2023/09/15 11:11:04;;;;;;;8.98;8.18;;;;;;;;;;5092867;28;20093;-92
2023/09/15 11:13:31;;;;;;;9.73;8.57;;;;;;;;;;5094260;28;20033;-90
2023/09/15 11:15:56;;;;;;;10.18;8.73;;;;;;;;;;5094004;28;20100;-88
2023/09/15 11:18:22;;;;;;;8.77;6.28;;;;;;;;;;5092519;28;20458;-92
2023/09/15 11:20:47;;;;;;;7.63;6.82;;;;;;;;;;5092504;28;20032;-93
2023/09/15 11:23:17;;;;;;;8.07;6.60;;;;;;;;;;5094575;28;20378;-91
2023/09/15 11:25:42;;;;;;;6.57;5.70;;;;;;;;;;5093579;28;20028;-93
2023/09/15 11:28:13;;;;;;;7.32;5.90;;;;;;;;;;5095190;28;20375;-96
2023/09/15 11:30:42;;;;;;;6.85;5.95;;;;;;;;;;5093890;28;20042;-95
2023/09/15 11:33:08;;;;;;;7.05;5.65;;;;;;;;;;5094150;28;20021;-96
2023/09/15 11:35:34;;;;;;;7.05;5.60;;;;;;;;;;5100560;28;20035;-96
2023/09/15 11:38:05;;;;;;;6.80;6.10;;;;;;;;;;5103607;28;20051;-96
2023/09/15 11:40:32;;;;;;;7.43;6.72;;;;;;;;;;5096402;28;20035;-96
2023/09/15 11:43:01;;;;;;;8.20;7.30;;;;;;;;;;5093566;28;20032;-94
2023/09/15 11:45:30;;;;;;;8.40;7.32;;;;;;;;;;5105415;28;20028;-96
2023/09/15 11:47:58;;;;;;;9.52;8.57;;;;;;;;;;5097867;28;20055;-96
2023/09/15 11:50:24;;;;;;;8.32;7.53;;;;;;;;;;5096531;28;20438;-96
2023/09/15 11:52:50;;;;;;;9.43;7.68;;;;;;;;;;5096649;28;20024;-93
2023/09/15 11:55:17;;;;;;;8.65;7.72;;;;;;;;;;5096895;28;20561;-93
2023/09/15 11:57:45;;;;;;;10.70;8.57;;;;;;;;;;5096897;28;20024;-93
2023/09/15 12:00:15;;;;;;;10.93;8.90;;;;;;;;;;5096461;28;20059;-93
2023/09/15 12:02:40;;;;;;;9.80;8.77;;;;;;;;;;5096489;28;20020;-92
2023/09/15 12:05:06;;;;;;;10.48;9.43;;;;;;;;;;5096476;28;20050;-92
2023/09/15 12:07:32;;;;;;;11.00;9.38;;;;;;;;;;5079416;28;20028;-94
2023/09/15 12:09:58;;;;;;;9.90;8.82;;;;;;;;;;5096379;28;20080;-95
2023/09/15 12:12:23;;;;;;;10.75;9.48;;;;;;;;;;5096084;28;20470;-87
2023/09/15 12:14:49;;;;;;;14.90;9.93;;;;;;;;;;5096692;28;20081;-87
2023/09/15 12:17:15;;;;;;;12.43;8.88;;;;;;;;;;5096584;28;20082;-87
2023/09/15 12:19:40;;;;;;;12.05;9.73;;;;;;;;;;5096448;28;20031;-90
2023/09/15 12:22:06;;;;;;;12.02;8.52;;;;;;;;;;5096448;28;20486;-89
2023/09/15 12:24:31;;;;;;;10.60;9.50;;;;;;;;;;5096454;28;20381;-88
2023/09/15 12:27:00;;;;;;;9.27;8.32;;;;;;;;;;5096305;28;20454;-89
2023/09/15 12:29:27;;;;;;;11.82;10.07;;;;;;;;;;5095185;28;20028;-88
2023/09/15 12:31:53;;;;;;;11.88;10.68;;;;;;;;;;5094977;28;20024;-89
2023/09/15 12:34:21;;;;;;;10.70;9.48;;;;;;;;;;5095866;28;20491;-90
2023/09/15 12:36:48;;;;;;;11.15;10.02;;;;;;;;;;5095655;28;20476;-88
2023/09/15 12:39:14;;;;;;;11.73;9.55;;;;;;;;;;5097426;28;20059;-89
2023/09/15 12:41:42;;;;;;;10.82;9.40;;;;;;;;;;5096933;28;20069;-89
2023/09/15 12:44:08;;;;;;;9.07;8.05;;;;;;;;;;5096006;28;20022;-88
2023/09/15 12:46:34;;;;;;;10.35;8.88;;;;;;;;;;5096556;28;20024;-89
2023/09/15 12:48:59;;;;;;;7.95;7.07;;;;;;;;;;5096250;28;20550;-86
2023/09/15 12:51:25;;;;;;;8.02;7.10;;;;;;;;;;5096298;28;20020;-90
2023/09/15 12:53:50;;;;;;;9.20;8.20;;;;;;;;;;5095365;28;20111;-91
2023/09/15 12:56:15;;;;;;;9.00;8.00;;;;;;;;;;5096217;28;20114;-90
2023/09/15 12:58:41;;;;;;;10.20;8.50;;;;;;;;;;5096256;28;20082;-89
2023/09/15 13:01:06;;;;;;;8.77;7.95;;;;;;;;;;5096131;28;20085;-91
2023/09/15 13:03:32;;;;;;;9.52;8.60;;;;;;;;;;5096355;28;20077;-95
2023/09/15 13:05:57;;;;;;;10.38;9.35;;;;;;;;;;5095394;28;20470;-89
2023/09/15 13:08:23;;;;;;;12.77;9.63;;;;;;;;;;5097365;28;20031;-89
2023/09/15 13:10:48;;;;;;;11.93;9.65;;;;;;;;;;5097925;28;20020;-88
2023/09/15 13:13:14;;;;;;;11.27;9.38;;;;;;;;;;5097167;28;20024;-89
2023/09/15 13:15:40;;;;;;;9.27;8.35;;;;;;;;;;5095475;28;20020;-91
2023/09/15 13:18:06;;;;;;;9.23;7.63;;;;;;;;;;5096457;28;20035;-94
2023/09/15 13:20:32;;;;;;;7.90;7.07;;;;;;;;;;5094565;28;20048;-89
2023/09/15 13:22:57;;;;;;;8.00;6.97;;;;;;;;;;5096763;28;20099;-83
2023/09/15 13:25:23;;;;;;;7.38;6.57;;;;;;;;;;5094689;28;20048;-81
2023/09/15 13:27:48;;;;;;;8.73;7.15;;;;;;;;;;5096705;28;20048;-83
2023/09/15 13:30:14;;;;;;;9.70;7.32;;;;;;;;;;5096144;28;20047;-91
2023/09/15 13:32:40;;;;;;;8.23;7.43;;;;;;;;;;5077339;28;20024;-91
2023/09/15 13:35:07;;;;;;;10.15;8.05;;;;;;;;;;5095284;28;20016;-90
2023/09/15 13:37:32;;;;;;;8.73;7.45;;;;;;;;;;5094332;28;20016;-92
2023/09/15 13:39:58;;;;;;;8.68;7.50;;;;;;;;;;5094722;28;20474;-88
2023/09/15 13:42:37;;;;;;;8.05;7.25;;;;;;;;;;5094874;28;20024;-90
2023/09/15 13:45:04;;;;;;;7.53;6.35;;;;;;;;;;5093551;28;20024;-90
2023/09/15 15:13:40;;;;;;;7.47;6.78;;;;;;;;;;4998526;28;20055;-91
2023/09/15 15:16:09;;;;;;;8.18;6.45;;;;;;;;;;4974221;28;20031;-94
2023/09/15 15:18:34;;;;;;;9.60;7.20;;;;;;;;;;4989430;28;20027;-92
2023/09/15 15:21:00;;;;;;;7.90;7.10;;;;;;;;;;4967964;28;20034;-93
2023/09/15 15:23:25;;;;;;;8.98;7.85;;;;;;;;;;4973005;29;20028;-90
2023/09/15 15:25:52;;;;;;;8.50;7.60;;;;;;;;;;4972099;29;20054;-93
2023/09/15 15:28:18;;;;;;;8.60;7.13;;;;;;;;;;4972092;28;20106;-93
2023/09/15 15:30:44;;;;;;;8.52;7.63;;;;;;;;;;4963608;28;20035;-92
2023/09/15 15:33:09;;;;;;;10.65;8.00;;;;;;;;;;4959647;28;20354;-92
2023/09/15 15:35:35;;;;;;;9.15;8.25;;;;;;;;;;4958187;29;20034;-93
2023/09/15 15:38:02;;;;;;;8.95;7.70;;;;;;;;;;4958374;28;20032;-92
2023/09/15 15:40:31;;;;;;;9.25;7.07;;;;;;;;;;4964439;28;20054;-96
2023/09/15 15:42:56;;;;;;;8.95;7.22;;;;;;;;;;4968124;28;20093;-96
2023/09/15 15:45:22;;;;;;;7.68;7.00;;;;;;;;;;4967310;29;20019;-94
2023/09/15 15:47:47;;;;;;;8.60;7.70;;;;;;;;;;4965007;29;20027;-93
2023/09/15 15:50:13;;;;;;;8.95;7.85;;;;;;;;;;4962757;28;20023;-91
2023/09/15 15:52:38;;;;;;;7.63;6.90;;;;;;;;;;4963319;28;20031;-91
2023/09/15 15:55:04;;;;;;;8.20;7.38;;;;;;;;;;4961569;28;20038;-94
2023/09/15 15:57:30;;;;;;;9.38;7.95;;;;;;;;;;4959216;29;20075;-88
2023/09/15 15:59:55;;;;;;;8.98;7.72;;;;;;;;;;4957394;28;20079;-90
2023/09/15 16:02:21;;;;;;;10.52;7.72;;;;;;;;;;4957675;28;20054;-85
2023/09/15 16:04:47;;;;;;;7.43;6.60;;;;;;;;;;4959105;29;20031;-90
2023/09/15 16:07:13;;;;;;;9.68;8.77;;;;;;;;;;4959704;28;20040;-90
2023/09/15 16:09:38;;;;;;;9.48;8.68;;;;;;;;;;4958375;28;20023;-90
2023/09/15 16:12:05;;;;;;;8.82;6.70;;;;;;;;;;4959191;28;20027;-91
2023/09/15 16:14:32;;;;;;;8.57;7.65;;;;;;;;;;4959306;29;20536;-91
2023/09/15 16:16:58;;;;;;;7.20;6.50;;;;;;;;;;4974748;28;20474;-96
2023/09/15 16:19:24;;;;;;;9.27;8.07;;;;;;;;;;4959728;28;20086;-86
2023/09/15 16:21:49;;;;;;;7.95;7.15;;;;;;;;;;4959676;28;20031;-82
2023/09/15 16:24:15;;;;;;;7.35;6.65;;;;;;;;;;4962646;29;20050;-82
2023/09/15 16:26:41;;;;;;;7.45;6.57;;;;;;;;;;4959319;28;20409;-90
2023/09/15 16:29:06;;;;;;;7.30;6.00;;;;;;;;;;4958217;28;20058;-96
2023/09/15 16:31:32;;;;;;;7.47;6.68;;;;;;;;;;4958425;28;20533;-89
2023/09/15 16:33:57;;;;;;;7.43;6.13;;;;;;;;;;4957852;28;20027;-89
2023/09/15 16:36:23;;;;;;;6.60;6.00;;;;;;;;;;4958412;28;20434;-88
2023/09/15 16:38:48;;;;;;;7.28;6.65;;;;;;;;;;4958373;28;20019;-87
2023/09/15 16:41:14;;;;;;;7.72;6.97;;;;;;;;;;4958391;28;20350;-91
2023/09/15 16:43:39;;;;;;;9.68;6.40;;;;;;;;;;4963312;29;20033;-96
2023/09/15 16:46:05;;;;;;;6.88;6.28;;;;;;;;;;4959761;29;20031;-96
2023/09/15 16:48:31;;;;;;;7.88;6.47;;;;;;;;;;4958204;28;20082;-96
2023/09/15 16:50:57;;;;;;;6.93;6.10;;;;;;;;;;4961718;28;20498;-92
2023/09/15 16:53:23;;;;;;;7.00;6.20;;;;;;;;;;4968131;29;20027;-92
2023/09/15 16:55:50;;;;;;;6.25;5.50;;;;;;;;;;4969118;29;20377;-94
2023/09/15 16:58:17;;;;;;;7.10;6.40;;;;;;;;;;4962381;28;20027;-96
2023/09/15 17:00:44;;;;;;;7.35;6.65;;;;;;;;;;4965135;28;20031;-84
2023/09/15 17:03:12;;;;;;;6.95;6.30;;;;;;;;;;4958914;28;20027;-83
2023/09/15 21:16:53;;;;;;;5.90;5.38;;;;;;;;;;5264969;22;20049;-82
2023/09/15 21:19:18;;;;;;;5.75;5.25;;;;;;;;;;5015628;28;20041;-82
2023/09/15 21:21:44;;;;;;;5.55;5.05;;;;;;;;;;5015907;28;20038;-82
2023/09/15 21:24:09;;;;;;;6.28;5.68;;;;;;;;;;5024166;28;20029;-83
2023/09/15 21:26:34;;;;;;;5.72;5.10;;;;;;;;;;5035231;28;20040;-84
2023/09/15 21:29:00;;;;;;;6.65;5.22;;;;;;;;;;5035244;28;20029;-81
2023/09/15 21:31:26;;;;;;;6.05;5.40;;;;;;;;;;5035666;28;20379;-83
2023/09/15 21:33:52;;;;;;;5.88;5.25;;;;;;;;;;5035020;28;20029;-90
2023/09/15 21:36:17;;;;;;;6.05;5.47;;;;;;;;;;5035186;28;20021;-82
2023/09/15 21:38:43;;;;;;;6.82;6.10;;;;;;;;;;5035194;28;20029;-81
2023/09/15 21:41:08;;;;;;;7.07;5.85;;;;;;;;;;5033928;28;20091;-81
2023/09/15 21:43:37;;;;;;;7.80;5.50;;;;;;;;;;5034850;28;20030;-82
2023/09/15 21:46:03;;;;;;;7.30;5.85;;;;;;;;;;5035151;28;20025;-81
2023/09/15 21:48:28;;;;;;;6.18;5.57;;;;;;;;;;5035404;28;20041;-94
2023/09/15 21:50:54;;;;;;;6.15;5.43;;;;;;;;;;5035333;28;20037;-90
2023/09/15 21:53:21;;;;;;;6.28;5.68;;;;;;;;;;5035149;28;20032;-84
2023/09/15 21:55:47;;;;;;;7.22;5.38;;;;;;;;;;5035027;28;20078;-82
2023/09/15 21:58:13;;;;;;;5.97;5.28;;;;;;;;;;5034996;28;20083;-82
2023/09/15 22:00:41;;;;;;;5.78;5.28;;;;;;;;;;5034442;28;20550;-92
2023/09/15 22:03:06;;;;;;;5.80;5.30;;;;;;;;;;5034260;28;20383;-82
2023/09/15 22:05:32;;;;;;;5.72;5.22;;;;;;;;;;5036019;28;20018;-90
2023/09/15 22:07:59;;;;;;;6.13;5.53;;;;;;;;;;5036322;28;20037;-89
2023/09/15 22:10:26;;;;;;;5.78;5.10;;;;;;;;;;5038826;28;20037;-82
2023/09/15 22:12:52;;;;;;;5.78;5.28;;;;;;;;;;5037388;28;20022;-82
2023/09/15 22:15:18;;;;;;;6.07;5.53;;;;;;;;;;5038858;28;20025;-83
2023/09/15 22:17:44;;;;;;;5.53;4.95;;;;;;;;;;5035528;28;20495;-86
2023/09/15 22:20:19;;;;;;;7.32;5.35;;;;;;;;;;5035069;28;20094;-84
2023/09/15 22:22:50;;;;;;;6.22;5.63;;;;;;;;;;5033692;28;20033;-89
2023/09/15 22:25:17;;;;;;;6.03;5.53;;;;;;;;;;5033235;28;20036;-83
2023/09/15 22:27:43;;;;;;;6.82;5.65;;;;;;;;;;5034715;28;20026;-83
2023/09/15 22:30:12;;;;;;;6.40;5.50;;;;;;;;;;5034023;28;20025;-90
2023/09/15 22:32:38;;;;;;;6.05;5.45;;;;;;;;;;5034731;28;20040;-93
2023/09/15 22:35:07;;;;;;;5.72;5.15;;;;;;;;;;5034218;28;20029;-85
2023/09/15 22:37:33;;;;;;;;;;;;;;;;;;5033828;28;20034;-87
2023/09/15 22:40:10;;;;;;;7.55;5.60;;;;;;;;;;5034185;28;19920;-82
2023/09/15 22:42:41;;;;;;;6.30;5.70;;;;;;;;;;5034234;28;20029;-87
2023/09/15 22:45:10;;;;;;;5.80;5.30;;;;;;;;;;5034164;28;20032;-95
2023/09/15 22:47:37;;;;;;;6.45;5.85;;;;;;;;;;5034008;28;20032;-82
2023/09/15 22:50:06;;;;;;;6.95;5.97;;;;;;;;;;5034502;28;20041;-91
2023/09/15 22:52:34;;;;;;;6.50;5.90;;;;;;;;;;5034033;28;20032;-82
2023/09/15 22:55:00;;;;;;;6.57;5.97;;;;;;;;;;5033791;28;20465;-82
2023/09/15 22:57:25;;;;;;;6.53;5.93;;;;;;;;;;5033763;28;20040;-86
2023/09/15 22:59:51;;;;;;;10.07;6.22;;;;;;;;;;5033760;28;20029;-83
2023/09/15 23:02:16;;;;;;;6.55;5.95;;;;;;;;;;5033696;28;20029;-83
2023/09/15 23:04:42;;;;;;;7.03;6.38;;;;;;;;;;5033435;28;20041;-82
2023/09/15 23:07:08;;;;;;;6.22;5.68;;;;;;;;;;5033764;28;20061;-86
2023/09/15 23:09:35;;;;;;;6.78;6.18;;;;;;;;;;5033707;28;20434;-82
2023/09/15 23:12:00;;;;;;;6.85;6.25;;;;;;;;;;5033787;28;20022;-83
2023/09/15 23:14:26;;;;;;;6.35;5.75;;;;;;;;;;5032403;28;20105;-89
2023/09/15 23:16:52;;;;;;;6.25;5.65;;;;;;;;;;5033656;28;20464;-83
2023/09/15 23:19:17;;;;;;;6.30;5.78;;;;;;;;;;5033618;28;20021;-81
2023/09/15 23:21:43;;;;;;;6.25;5.65;;;;;;;;;;5033378;28;20113;-83
2023/09/15 23:24:09;;;;;;;5.80;5.30;;;;;;;;;;5033355;28;20014;-91
